»·PEaware :: SWA342 KOAK-KLAS

SWA342 :: KOAK-KLAS

FLIGHT INFORMATION

Flight Status: Arrived
Operator:
Southwest Airlines
More flights by this operator :: More flights under this callsign
Pilot: James N. (18449)
Aircraft: BOEING 737-800
(B738)
More flights by this aircraft type
Origin: KOAK Metro Oakland Intl
United States
Destination: KLAS McCarran Intl
United States
More flights between these airports :: More routes between these airports
Route: CNDEL3 NTELL Q162 ESSAA BTY SUNST4
File this flight plan on PilotEdge
Remarks: PBN / A1B1C1D1S1S2 DOF / 180607 REG / N806SB EET / KZLA0038 OPR / SWA PER / C RMK / TCAS SIMBRIEF
Altitude:
(Current/Filed)
35,000ft
Speed:
(Current/Filed)
461kts
Departed: 06-Jun-18 08:53 PM
Arrived: 06-Jun-18 10:05 PM
Distance/Time
Traveled:
353nm/1:12
Distance/Time
To Go:
Arrived

Flight Plot

Page will automatically refresh every two minutes.

Flight plan parsing failed; only flown route is shown


Map Options




Map Legend


Flown Route
Filed Route
Departure Airport
Arrival Airport
Navaid (VOR, NDB)
Fix

Horizontal Profiles

Position Reports

Time Latitude Longitude Heading Altitude Ground
Speed
06-Jun-18 20:18 37.711240 -122.213049 57 15ft 0kts
06-Jun-18 20:19 37.711240 -122.213049 57 15ft 0kts
06-Jun-18 20:20 37.711240 -122.213049 57 15ft 0kts
06-Jun-18 20:21 37.711240 -122.213049 57 15ft 0kts
06-Jun-18 20:22 37.711240 -122.213049 57 15ft 0kts
06-Jun-18 20:23 37.711240 -122.213049 57 15ft 0kts
06-Jun-18 20:24 37.711240 -122.213049 57 15ft 0kts
06-Jun-18 20:25 37.711240 -122.213049 57 15ft 0kts
06-Jun-18 20:26 37.711240 -122.213049 57 15ft 0kts
06-Jun-18 20:27 37.711240 -122.213049 57 15ft 0kts
06-Jun-18 20:28 37.711240 -122.213049 57 15ft 0kts
06-Jun-18 20:29 37.711240 -122.213049 57 15ft 0kts
06-Jun-18 20:30 37.711240 -122.213049 57 15ft 0kts
06-Jun-18 20:31 37.711240 -122.213049 57 15ft 0kts
06-Jun-18 20:32 37.711240 -122.213049 57 15ft 0kts
06-Jun-18 20:33 37.711240 -122.213049 57 15ft 0kts
06-Jun-18 20:34 37.711240 -122.213049 57 15ft 0kts
06-Jun-18 20:35 37.711240 -122.213049 57 15ft 0kts
06-Jun-18 20:36 37.711240 -122.213049 57 15ft 0kts
06-Jun-18 20:37 37.711240 -122.213049 57 15ft 0kts
06-Jun-18 20:38 37.711240 -122.213049 57 15ft 0kts
06-Jun-18 20:39 37.711240 -122.213049 57 15ft 0kts
06-Jun-18 20:40 37.711240 -122.213049 57 15ft 0kts
06-Jun-18 20:41 37.711240 -122.213049 57 15ft 0kts
06-Jun-18 20:42 37.710963 -122.213542 51 15ft 2kts
06-Jun-18 20:43 37.710578 -122.214056 42 15ft 2kts
06-Jun-18 20:44 37.710220 -122.214422 37 15ft 2kts
06-Jun-18 20:45 37.709846 -122.214089 254 15ft 2kts
06-Jun-18 20:46 37.710054 -122.213784 218 15ft 0kts
06-Jun-18 20:47 37.710053 -122.213785 218 15ft 0kts
06-Jun-18 20:48 37.709897 -122.213946 219 15ft 6kts
06-Jun-18 20:49 37.708812 -122.215642 255 14ft 8kts
06-Jun-18 20:50 37.706156 -122.217355 134 14ft 12kts
06-Jun-18 20:51 37.703711 -122.214017 157 14ft 12kts
06-Jun-18 20:52 37.702204 -122.213782 217 14ft 3kts
06-Jun-18 20:53 37.707006 -122.222475 309 15ft 122kts
06-Jun-18 20:54 37.735691 -122.264562 304 1860ft 182kts
06-Jun-18 20:55 37.774811 -122.324292 307 3052ft 252kts
06-Jun-18 20:56 37.777031 -122.397262 205 5725ft 261kts
06-Jun-18 20:57 37.705151 -122.418732 193 8387ft 276kts
06-Jun-18 20:58 37.628554 -122.438669 192 10614ft 298kts
06-Jun-18 20:59 37.540389 -122.461528 192 12289ft 342kts
06-Jun-18 21:00 37.455875 -122.420305 128 14980ft 360kts
06-Jun-18 21:01 37.401591 -122.313071 107 17612ft 380kts
06-Jun-18 21:02 37.376794 -122.181393 105 20044ft 397kts
06-Jun-18 21:03 37.349828 -122.045941 106 22261ft 413kts
06-Jun-18 21:04 37.320317 -121.905057 106 24302ft 428kts
06-Jun-18 21:05 37.289053 -121.759342 106 26179ft 442kts
06-Jun-18 21:06 37.256839 -121.609055 106 27907ft 455kts
06-Jun-18 21:07 37.224219 -121.456109 106 29494ft 468kts
06-Jun-18 21:08 37.191164 -121.300194 107 31266ft 471kts
06-Jun-18 21:09 37.157964 -121.142613 107 33020ft 470kts
06-Jun-18 21:10 37.124704 -120.983964 107 34480ft 472kts
06-Jun-18 21:11 37.091404 -120.824162 106 34909ft 482kts
06-Jun-18 21:12 37.057999 -120.662759 106 34900ft 481kts
06-Jun-18 21:13 37.024769 -120.501278 106 34901ft 481kts
06-Jun-18 21:14 36.991699 -120.339601 107 34900ft 481kts
06-Jun-18 21:15 36.959493 -120.180940 106 34898ft 481kts
06-Jun-18 21:16 36.926743 -120.018851 106 34915ft 482kts
06-Jun-18 21:17 36.919245 -119.854212 83 34911ft 489kts
06-Jun-18 21:18 36.959602 -119.706947 67 34889ft 489kts
06-Jun-18 21:19 37.007439 -119.558278 67 34891ft 488kts
06-Jun-18 21:20 37.057441 -119.402239 67 34893ft 486kts
06-Jun-18 21:21 37.106476 -119.249582 67 34894ft 485kts
06-Jun-18 21:22 37.156685 -119.093734 67 35044ft 485kts
06-Jun-18 21:23 37.207455 -118.936598 67 35058ft 486kts
06-Jun-18 21:24 37.258270 -118.779793 67 35056ft 488kts
06-Jun-18 21:25 37.288205 -118.614541 84 34933ft 488kts
06-Jun-18 21:26 37.302500 -118.446171 84 34845ft 488kts
06-Jun-18 21:27 37.316469 -118.286396 84 34841ft 487kts
06-Jun-18 21:28 37.331516 -118.117552 84 34841ft 488kts
06-Jun-18 21:29 37.346867 -117.947642 84 34846ft 488kts
06-Jun-18 21:30 37.342782 -117.778605 98 34846ft 486kts
06-Jun-18 21:31 37.326647 -117.610800 98 34848ft 486kts
06-Jun-18 21:32 37.311337 -117.444720 98 34917ft 485kts
06-Jun-18 21:33 37.278680 -117.285656 125 34965ft 476kts
06-Jun-18 21:34 37.200982 -117.152715 131 34969ft 471kts
06-Jun-18 21:35 37.121254 -117.021318 131 32665ft 476kts
06-Jun-18 21:36 37.030752 -116.909867 153 29674ft 445kts
06-Jun-18 21:37 36.925598 -116.835632 154 26941ft 431kts
06-Jun-18 21:38 36.826485 -116.766481 154 26093ft 404kts
06-Jun-18 21:39 36.745056 -116.671156 134 25131ft 407kts
06-Jun-18 21:40 36.671885 -116.566034 134 24148ft 400kts
06-Jun-18 21:41 36.599518 -116.462769 134 23161ft 393kts
06-Jun-18 21:42 36.529101 -116.362751 134 22184ft 386kts
06-Jun-18 21:43 36.459186 -116.263858 135 21183ft 380kts
06-Jun-18 21:44 36.390372 -116.166867 135 20581ft 375kts
06-Jun-18 21:45 36.321608 -116.070247 134 19319ft 368kts
06-Jun-18 21:46 36.272681 -116.001670 134 18056ft 365kts
06-Jun-18 21:47 36.228597 -115.939942 134 17324ft 337kts
06-Jun-18 21:48 36.187854 -115.866019 115 16229ft 318kts
06-Jun-18 21:49 36.166363 -115.798324 114 14931ft 313kts
06-Jun-18 21:50 36.137483 -115.707363 114 14169ft 312kts
06-Jun-18 21:51 36.106146 -115.609492 114 13220ft 305kts
06-Jun-18 21:52 36.074989 -115.512732 114 12282ft 300kts
06-Jun-18 21:53 36.045206 -115.420520 114 11398ft 277kts
06-Jun-18 21:54 36.025591 -115.331734 98 10481ft 276kts
06-Jun-18 21:55 36.021054 -115.259516 98 9652ft 268kts
06-Jun-18 21:56 36.015523 -115.175919 98 8793ft 262kts
06-Jun-18 21:57 36.010019 -115.090082 98 8307ft 232kts
06-Jun-18 21:58 36.005812 -115.017020 98 7966ft 197kts
06-Jun-18 21:59 36.002060 -114.951925 98 6925ft 188kts
06-Jun-18 22:00 36.039621 -114.914526 1 5851ft 196kts
06-Jun-18 22:01 36.078517 -114.947383 268 4270ft 180kts
06-Jun-18 22:02 36.072953 -115.007413 268 3979ft 177kts
06-Jun-18 22:03 36.073383 -115.066349 267 3392ft 169kts
06-Jun-18 22:04 36.073625 -115.122507 267 2261ft 157kts
06-Jun-18 22:05 36.073726 -115.143274 281 2149ft 23kts
06-Jun-18 22:06 36.076999 -115.146552 358 2149ft 0kts
06-Jun-18 22:07 36.077888 -115.146219 255 2148ft 1kts
06-Jun-18 22:08 36.078444 -115.145461 92 2149ft 8kts
06-Jun-18 22:09 36.081971 -115.146346 260 2149ft 0kts
06-Jun-18 22:10 36.081971 -115.146346 260 2149ft 0kts
06-Jun-18 22:11 36.081971 -115.146346 260 2149ft 0kts
06-Jun-18 22:12 36.081971 -115.146346 260 2149ft 0kts
06-Jun-18 22:13 36.081971 -115.146346 260 2149ft 0kts
06-Jun-18 22:14 36.081971 -115.146346 260 2149ft 0kts

Navigation Log

Ident Type
Flight plan parsing failed, navigation log unavailable